createdAt,value
2022-07-27T00:00:09.250Z,0.00
2022-07-27T00:01:09.280Z,0.00
2022-07-27T00:02:09.190Z,0.00
2022-07-27T00:03:09.191Z,0.00
2022-07-27T00:04:09.228Z,0.00
2022-07-27T00:05:09.173Z,0.00
2022-07-27T00:06:09.141Z,0.00
2022-07-27T00:07:09.133Z,0.00
2022-07-27T00:08:09.121Z,0.00
2022-07-27T00:09:09.439Z,0.00
2022-07-27T00:10:09.114Z,0.00
2022-07-27T00:11:09.084Z,0.00
2022-07-27T00:12:09.085Z,0.00
2022-07-27T00:13:09.072Z,0.00
2022-07-27T00:14:09.060Z,0.00
2022-07-27T00:15:09.042Z,0.00
2022-07-27T00:16:09.110Z,0.00
2022-07-27T00:17:09.020Z,0.00
2022-07-27T00:18:09.018Z,0.00
2022-07-27T00:19:09.498Z,0.00
2022-07-27T00:20:08.983Z,0.00
2022-07-27T00:21:08.974Z,0.00
2022-07-27T00:22:08.987Z,0.00
2022-07-27T00:23:08.955Z,0.00
2022-07-27T00:24:08.943Z,0.00
2022-07-27T00:25:08.934Z,0.00
2022-07-27T00:26:08.916Z,0.00
2022-07-27T00:27:08.905Z,0.00
2022-07-27T00:28:08.904Z,0.00
2022-07-27T00:29:09.314Z,0.00
2022-07-27T00:30:08.884Z,0.00
2022-07-27T00:31:08.934Z,0.00
2022-07-27T00:32:12.565Z,0.00
2022-07-27T00:33:08.877Z,0.00
2022-07-27T00:34:08.826Z,0.00
2022-07-27T00:35:08.814Z,0.00
2022-07-27T00:36:08.803Z,0.00
2022-07-27T00:37:08.795Z,0.00
2022-07-27T00:38:08.788Z,0.00
2022-07-27T00:39:09.121Z,0.00
2022-07-27T00:40:08.755Z,0.00
2022-07-27T00:41:08.756Z,0.00
2022-07-27T00:42:08.739Z,0.00
2022-07-27T00:43:08.736Z,0.00
2022-07-27T00:44:08.715Z,0.00
2022-07-27T00:45:08.734Z,0.00
2022-07-27T00:46:08.696Z,0.00
2022-07-27T00:47:08.726Z,0.00
2022-07-27T00:48:08.677Z,0.00
2022-07-27T00:49:09.047Z,0.00
2022-07-27T00:50:08.644Z,0.00
2022-07-27T00:51:08.668Z,0.00
2022-07-27T00:52:08.630Z,0.00
2022-07-27T00:53:08.616Z,0.00
2022-07-27T00:54:08.598Z,0.00
2022-07-27T00:55:08.596Z,0.00
2022-07-27T00:56:08.589Z,0.00
2022-07-27T00:57:08.597Z,0.00
2022-07-27T00:58:08.563Z,0.00
2022-07-27T00:59:08.939Z,0.00
2022-07-27T01:00:08.538Z,0.00
2022-07-27T01:01:08.528Z,0.00
2022-07-27T01:02:11.846Z,0.00
2022-07-27T01:03:08.829Z,0.00
2022-07-27T01:04:08.488Z,0.00
2022-07-27T01:05:08.477Z,0.00
2022-07-27T01:06:08.479Z,0.00
2022-07-27T01:07:08.462Z,0.00
2022-07-27T01:08:08.448Z,0.00
2022-07-27T01:09:08.788Z,0.00
2022-07-27T01:10:08.417Z,0.00
2022-07-27T01:11:08.422Z,0.00
2022-07-27T01:12:08.400Z,0.00
2022-07-27T01:13:12.866Z,0.00
2022-07-27T01:14:08.426Z,0.00
2022-07-27T01:15:08.366Z,0.00
2022-07-27T01:16:08.402Z,0.00
2022-07-27T01:17:08.338Z,0.00
2022-07-27T01:18:08.330Z,0.00
2022-07-27T01:19:08.474Z,0.00
2022-07-27T01:20:08.352Z,0.00
2022-07-27T01:21:08.299Z,0.00
2022-07-27T01:22:08.291Z,0.00
2022-07-27T01:23:08.295Z,0.00
2022-07-27T01:24:08.261Z,0.00
2022-07-27T01:25:08.249Z,0.00
2022-07-27T01:26:08.263Z,0.00
2022-07-27T01:27:08.246Z,0.00
2022-07-27T01:28:08.218Z,0.00
2022-07-27T01:29:08.276Z,0.00
2022-07-27T01:30:08.192Z,0.00
2022-07-27T01:31:08.222Z,0.00
2022-07-27T01:32:08.190Z,0.00
2022-07-27T01:33:08.166Z,0.00
2022-07-27T01:34:08.151Z,0.00
2022-07-27T01:35:08.142Z,0.00
2022-07-27T01:36:08.119Z,0.00
2022-07-27T01:37:08.115Z,0.00
2022-07-27T01:38:08.130Z,0.00
2022-07-27T01:39:08.281Z,0.00
2022-07-27T01:40:08.079Z,0.00
2022-07-27T01:41:08.070Z,0.00
2022-07-27T01:42:08.053Z,0.00
2022-07-27T01:43:08.053Z,0.00
2022-07-27T01:44:08.060Z,0.00
2022-07-27T01:45:08.026Z,0.00
2022-07-27T01:46:08.091Z,0.00
2022-07-27T01:47:14.418Z,0.00
2022-07-27T01:48:08.992Z,0.00
2022-07-27T01:49:08.117Z,0.00
2022-07-27T01:50:07.987Z,0.00
2022-07-27T01:51:07.961Z,0.00
2022-07-27T01:52:07.952Z,0.00
2022-07-27T01:53:09.240Z,0.00
2022-07-27T01:54:07.941Z,0.00
2022-07-27T01:55:07.931Z,0.00
2022-07-27T01:56:07.907Z,0.00
2022-07-27T01:57:07.894Z,0.00
2022-07-27T01:58:07.881Z,0.00
2022-07-27T01:59:07.995Z,0.00
2022-07-27T02:00:08.881Z,0.00
2022-07-27T02:01:07.987Z,0.00
2022-07-27T02:02:07.973Z,0.00
2022-07-27T02:03:07.818Z,0.00
2022-07-27T02:04:07.823Z,0.00
2022-07-27T02:05:07.841Z,0.00
2022-07-27T02:06:07.802Z,0.00
2022-07-27T02:07:07.775Z,0.00
2022-07-27T02:08:07.771Z,0.00
2022-07-27T02:09:07.876Z,0.00
2022-07-27T02:10:07.749Z,0.00
2022-07-27T02:11:07.724Z,0.00
2022-07-27T02:12:07.747Z,0.00
2022-07-27T02:13:22.492Z,0.00
2022-07-27T02:14:08.696Z,0.00
2022-07-27T02:15:07.686Z,0.00
2022-07-27T02:16:16.684Z,0.00
2022-07-27T02:17:08.677Z,0.00
2022-07-27T02:18:26.650Z,0.00
2022-07-27T02:19:08.714Z,0.00
2022-07-27T02:20:07.629Z,0.00
2022-07-27T02:21:07.628Z,0.00
2022-07-27T02:22:07.604Z,0.00
2022-07-27T02:23:07.606Z,0.00
2022-07-27T02:24:07.591Z,0.00
2022-07-27T02:25:07.568Z,0.00
2022-07-27T02:26:07.555Z,0.00
2022-07-27T02:27:07.544Z,0.00
2022-07-27T02:28:07.539Z,0.00
2022-07-27T02:29:07.549Z,0.00
2022-07-27T02:30:07.522Z,0.00
2022-07-27T02:31:07.501Z,0.00
2022-07-27T02:32:07.491Z,0.00
2022-07-27T02:33:07.549Z,0.00
2022-07-27T02:34:07.475Z,0.00
2022-07-27T02:35:18.346Z,0.00
2022-07-27T02:36:08.443Z,0.00
2022-07-27T02:37:07.444Z,0.00
2022-07-27T02:38:07.433Z,0.00
2022-07-27T02:39:07.408Z,0.00
2022-07-27T02:40:07.424Z,0.00
2022-07-27T02:41:07.387Z,0.00
2022-07-27T02:42:07.380Z,0.00
2022-07-27T02:43:07.368Z,0.00
2022-07-27T02:44:07.355Z,0.00
2022-07-27T02:45:07.340Z,0.00
2022-07-27T02:46:07.433Z,0.00
2022-07-27T02:47:07.316Z,0.00
2022-07-27T02:48:08.502Z,0.00
2022-07-27T02:49:07.386Z,0.00
2022-07-27T02:50:07.282Z,0.00
2022-07-27T02:51:07.281Z,0.00
2022-07-27T02:52:07.320Z,0.00
2022-07-27T02:53:07.248Z,0.00
2022-07-27T02:54:07.247Z,0.00
2022-07-27T02:55:07.218Z,0.00
2022-07-27T02:56:07.233Z,0.00
2022-07-27T02:57:07.200Z,0.00
2022-07-27T02:58:07.207Z,0.00
2022-07-27T02:59:07.185Z,0.00
2022-07-27T03:00:07.188Z,0.00
2022-07-27T03:01:07.240Z,0.00
2022-07-27T03:02:07.148Z,0.00
2022-07-27T03:03:07.137Z,0.00
2022-07-27T03:04:07.194Z,0.00
2022-07-27T03:05:07.111Z,0.00
2022-07-27T03:06:07.103Z,0.00
2022-07-27T03:07:07.089Z,0.00
2022-07-27T03:08:07.090Z,0.00
2022-07-27T03:09:07.071Z,0.00
2022-07-27T03:10:07.084Z,0.00
2022-07-27T03:11:07.039Z,0.00
2022-07-27T03:12:07.031Z,0.00
2022-07-27T03:13:07.027Z,0.00
2022-07-27T03:14:07.013Z,0.00
2022-07-27T03:15:06.997Z,0.00
2022-07-27T03:16:07.087Z,4.00
2022-07-27T03:17:06.981Z,4.00
2022-07-27T03:18:06.979Z,0.00
2022-07-27T03:19:06.949Z,0.00
2022-07-27T03:20:08.061Z,4.00
2022-07-27T03:21:06.941Z,4.00
2022-07-27T03:22:06.940Z,4.00
2022-07-27T03:23:06.901Z,4.00
2022-07-27T03:24:06.902Z,4.00
2022-07-27T03:25:06.899Z,4.00
2022-07-27T03:26:06.880Z,8.00
2022-07-27T03:27:06.884Z,8.00
2022-07-27T03:28:06.850Z,8.00
2022-07-27T03:29:06.834Z,12.00
2022-07-27T03:30:06.832Z,16.00
2022-07-27T03:31:06.876Z,12.00
2022-07-27T03:32:06.809Z,16.00
2022-07-27T03:33:06.824Z,20.00
2022-07-27T03:34:06.780Z,24.00
2022-07-27T03:35:06.770Z,28.00
2022-07-27T03:36:06.762Z,32.00
2022-07-27T03:37:06.748Z,36.00
2022-07-27T03:38:06.743Z,40.00
2022-07-27T03:39:06.749Z,44.00
2022-07-27T03:40:06.712Z,44.00
2022-07-27T03:41:06.701Z,48.00
2022-07-27T03:42:06.704Z,52.00
2022-07-27T03:43:06.685Z,56.00
2022-07-27T03:44:06.674Z,64.00
2022-07-27T03:45:06.893Z,72.00
2022-07-27T03:46:06.689Z,84.00
2022-07-27T03:47:06.633Z,92.00
2022-07-27T03:48:06.635Z,96.00
2022-07-27T03:49:14.310Z,104.00
2022-07-27T03:50:07.622Z,112.00
2022-07-27T03:51:06.585Z,124.00
2022-07-27T03:52:06.581Z,140.00
2022-07-27T03:53:06.563Z,152.00
2022-07-27T03:54:06.554Z,160.00
2022-07-27T03:55:06.542Z,164.00
2022-07-27T03:56:06.555Z,176.00
2022-07-27T03:57:06.513Z,192.00
2022-07-27T03:58:06.522Z,204.00
2022-07-27T03:59:06.501Z,228.00
2022-07-27T04:00:06.497Z,256.00
2022-07-27T04:01:06.516Z,284.00
2022-07-27T04:02:06.527Z,300.00
2022-07-27T04:03:06.462Z,320.00
2022-07-27T04:04:06.445Z,328.00
2022-07-27T04:05:06.439Z,328.00
2022-07-27T04:06:06.423Z,344.00
2022-07-27T04:07:06.404Z,360.00
2022-07-27T04:08:06.414Z,376.00
2022-07-27T04:09:07.980Z,384.00
2022-07-27T04:10:06.377Z,404.00
2022-07-27T04:11:06.365Z,436.00
2022-07-27T04:12:06.367Z,472.00
2022-07-27T04:13:06.365Z,500.00
2022-07-27T04:14:06.336Z,516.00
2022-07-27T04:15:06.325Z,536.00
2022-07-27T04:16:06.313Z,548.00
2022-07-27T04:17:06.381Z,564.00
2022-07-27T04:18:06.289Z,608.00
2022-07-27T04:19:06.294Z,668.00
2022-07-27T04:20:06.300Z,740.00
2022-07-27T04:21:06.272Z,816.00
2022-07-27T04:22:06.244Z,900.00
2022-07-27T04:23:06.228Z,992.00
2022-07-27T04:24:06.229Z,1084.00
2022-07-27T04:25:06.217Z,1156.00
2022-07-27T04:26:06.205Z,1252.00
2022-07-27T04:27:06.186Z,1340.00
2022-07-27T04:28:06.176Z,1424.00
2022-07-27T04:29:06.166Z,1500.00
2022-07-27T04:30:09.521Z,1544.00
2022-07-27T04:31:06.203Z,1584.00
2022-07-27T04:32:06.137Z,1608.00
2022-07-27T04:33:06.116Z,1616.00
2022-07-27T04:34:06.115Z,1636.00
2022-07-27T04:35:06.102Z,1768.00
2022-07-27T04:36:06.107Z,1972.00
2022-07-27T04:37:06.080Z,2168.00
2022-07-27T04:38:06.064Z,2348.00
2022-07-27T04:39:06.047Z,2476.00
2022-07-27T04:40:06.037Z,2560.00
2022-07-27T04:41:06.060Z,2628.00
2022-07-27T04:42:06.020Z,2804.00
2022-07-27T04:43:06.012Z,2968.00
2022-07-27T04:44:05.999Z,3128.00
2022-07-27T04:45:05.990Z,3260.00
2022-07-27T04:46:06.177Z,3348.00
2022-07-27T04:47:06.045Z,3376.00
2022-07-27T04:48:05.947Z,3456.00
2022-07-27T04:49:05.988Z,3608.00
2022-07-27T04:50:05.928Z,3768.00
2022-07-27T04:51:05.920Z,3976.00
2022-07-27T04:52:05.911Z,4244.00
2022-07-27T04:53:05.938Z,4652.00
2022-07-27T04:54:05.881Z,4988.00
2022-07-27T04:55:05.873Z,5132.00
2022-07-27T04:56:05.869Z,5156.00
2022-07-27T04:57:05.848Z,5124.00
2022-07-27T04:58:05.843Z,5148.00
2022-07-27T04:59:05.841Z,5156.00
2022-07-27T05:00:05.829Z,5192.00
2022-07-27T05:01:05.845Z,5332.00
2022-07-27T05:02:05.801Z,5512.00
2022-07-27T05:03:05.771Z,5712.00
2022-07-27T05:04:05.902Z,6088.00
2022-07-27T05:05:05.784Z,6532.00
2022-07-27T05:06:05.738Z,6916.00
2022-07-27T05:07:05.733Z,7148.00
2022-07-27T05:08:05.729Z,7292.00
2022-07-27T05:09:05.720Z,7336.00
2022-07-27T05:10:05.704Z,7260.00
2022-07-27T05:11:05.707Z,7200.00
2022-07-27T05:12:05.684Z,7260.00
2022-07-27T05:13:07.568Z,7332.00
2022-07-27T05:14:05.652Z,7352.00
2022-07-27T05:15:05.641Z,7332.00
2022-07-27T05:16:05.669Z,7288.00
2022-07-27T05:17:05.648Z,7328.00
2022-07-27T05:18:05.624Z,7344.00
2022-07-27T05:19:05.591Z,7564.00
2022-07-27T05:20:05.580Z,7324.00
2022-07-27T05:21:05.575Z,7076.00
2022-07-27T05:22:05.572Z,6880.00
2022-07-27T05:23:05.570Z,6640.00
2022-07-27T05:24:05.543Z,6620.00
2022-07-27T05:25:05.532Z,6608.00
2022-07-27T05:26:05.522Z,6648.00
2022-07-27T05:27:05.513Z,6796.00
2022-07-27T05:28:05.503Z,7036.00
2022-07-27T05:29:05.567Z,7292.00
2022-07-27T05:30:05.481Z,7592.00
2022-07-27T05:31:05.511Z,7872.00
2022-07-27T05:32:05.498Z,8020.00
2022-07-27T05:33:05.447Z,8240.00
2022-07-27T05:34:05.433Z,8320.00
2022-07-27T05:35:05.553Z,8408.00
2022-07-27T05:36:07.716Z,8792.00
2022-07-27T05:37:05.393Z,8712.00
2022-07-27T05:38:05.685Z,8744.00
2022-07-27T05:39:07.246Z,9352.00
2022-07-27T05:40:06.401Z,9220.00
2022-07-27T05:41:06.334Z,9360.00
2022-07-27T05:42:05.397Z,9408.00
2022-07-27T05:43:05.338Z,9152.00
2022-07-27T05:44:05.325Z,8860.00
2022-07-27T05:45:05.310Z,8572.00
2022-07-27T05:46:05.360Z,8492.00
2022-07-27T05:47:06.029Z,8076.00
2022-07-27T05:48:05.276Z,7492.00
2022-07-27T05:49:05.317Z,7500.00
2022-07-27T05:50:05.255Z,6760.00
2022-07-27T05:51:05.237Z,6544.00
2022-07-27T05:52:05.272Z,6344.00
2022-07-27T05:53:05.225Z,5984.00
2022-07-27T05:54:05.215Z,5864.00
2022-07-27T05:55:05.204Z,5964.00
2022-07-27T05:56:05.185Z,6084.00
2022-07-27T05:57:05.225Z,6168.00
2022-07-27T05:58:05.204Z,6352.00
2022-07-27T05:59:07.236Z,6608.00
2022-07-27T06:00:05.150Z,6728.00
2022-07-27T06:01:05.244Z,6868.00
2022-07-27T06:02:05.127Z,7004.00
2022-07-27T06:03:05.180Z,7152.00
2022-07-27T06:04:05.150Z,7436.00
2022-07-27T06:05:05.087Z,7704.00
2022-07-27T06:06:05.077Z,7656.00
2022-07-27T06:07:05.068Z,7560.00
2022-07-27T06:08:05.062Z,7784.00
2022-07-27T06:09:05.058Z,7940.00
2022-07-27T06:10:05.044Z,8272.00
2022-07-27T06:11:05.019Z,8140.00
2022-07-27T06:12:05.007Z,7344.00
2022-07-27T06:13:05.005Z,6436.00
2022-07-27T06:14:04.987Z,5756.00
2022-07-27T06:15:05.207Z,5664.00
2022-07-27T06:16:04.994Z,5668.00
2022-07-27T06:17:04.959Z,5988.00
2022-07-27T06:18:04.955Z,5948.00
2022-07-27T06:19:04.949Z,6072.00
2022-07-27T06:20:04.947Z,5940.00
2022-07-27T06:21:04.917Z,6104.00
2022-07-27T06:22:04.929Z,6828.00
2022-07-27T06:23:07.881Z,7640.00
2022-07-27T06:24:04.878Z,8456.00
2022-07-27T06:25:04.868Z,9356.00
2022-07-27T06:26:05.007Z,10020.00
2022-07-27T06:27:04.852Z,10204.00
2022-07-27T06:28:04.869Z,10568.00
2022-07-27T06:29:09.972Z,11340.00
2022-07-27T06:30:05.819Z,12140.00
2022-07-27T06:31:04.833Z,12692.00
2022-07-27T06:32:04.867Z,13280.00
2022-07-27T06:33:04.946Z,13580.00
2022-07-27T06:34:08.231Z,13924.00
2022-07-27T06:35:05.760Z,14100.00
2022-07-27T06:36:04.740Z,14168.00
2022-07-27T06:37:04.760Z,14640.00
2022-07-27T06:38:04.721Z,15560.00
2022-07-27T06:39:04.720Z,16960.00
2022-07-27T06:40:04.699Z,17472.00
2022-07-27T06:41:04.694Z,18528.00
2022-07-27T06:42:04.681Z,19968.00
2022-07-27T06:43:04.705Z,20832.00
2022-07-27T06:44:04.663Z,21248.00
2022-07-27T06:45:04.656Z,21984.00
2022-07-27T06:46:04.631Z,23808.00
2022-07-27T06:47:04.673Z,23648.00
2022-07-27T06:48:04.625Z,25696.00
2022-07-27T06:49:04.722Z,25664.00
2022-07-27T06:50:04.592Z,22944.00
2022-07-27T06:51:04.580Z,22688.00
2022-07-27T06:52:04.564Z,23872.00
2022-07-27T06:53:04.552Z,25248.00
2022-07-27T06:54:04.544Z,27136.00
2022-07-27T06:55:04.562Z,27136.00
2022-07-27T06:56:04.514Z,25376.00
2022-07-27T06:57:04.519Z,30144.00
2022-07-27T06:58:04.508Z,27200.00
2022-07-27T06:59:04.493Z,29984.00
2022-07-27T07:00:04.473Z,54176.00
2022-07-27T07:01:04.572Z,50432.00
2022-07-27T07:02:04.455Z,58240.00
2022-07-27T07:03:04.453Z,67456.00
2022-07-27T07:04:04.519Z,56416.00
2022-07-27T07:05:04.423Z,48128.00
2022-07-27T07:06:04.404Z,42848.00
2022-07-27T07:07:07.312Z,60928.00
2022-07-27T07:08:04.389Z,24448.00
2022-07-27T07:09:04.384Z,26240.00
2022-07-27T07:10:04.376Z,28320.00
2022-07-27T07:11:04.367Z,62048.00
2022-07-27T07:12:04.351Z,67648.00
2022-07-27T07:13:04.365Z,28864.00
2022-07-27T07:14:04.330Z,22976.00
2022-07-27T07:15:04.316Z,29568.00
2022-07-27T07:16:04.326Z,70624.00
2022-07-27T07:17:04.304Z,73088.00
2022-07-27T07:18:04.277Z,74720.00
2022-07-27T07:19:04.288Z,66464.00
2022-07-27T07:20:04.259Z,63296.00
2022-07-27T07:21:04.248Z,38624.00
2022-07-27T07:22:04.236Z,56544.00
2022-07-27T07:23:04.243Z,50560.00
2022-07-27T07:24:04.208Z,41536.00
2022-07-27T07:25:04.232Z,44544.00
2022-07-27T07:26:04.197Z,65344.00
2022-07-27T07:27:04.186Z,38656.00
2022-07-27T07:28:04.171Z,29184.00
2022-07-27T07:29:04.169Z,45344.00
2022-07-27T07:30:04.150Z,47424.00
2022-07-27T07:31:04.230Z,84032.00
2022-07-27T07:32:04.135Z,41696.00
2022-07-27T07:33:04.120Z,76512.00
2022-07-27T07:34:04.112Z,68928.00
2022-07-27T07:35:04.091Z,52768.00
2022-07-27T07:36:12.070Z,75744.00
2022-07-27T07:37:05.080Z,76064.00
2022-07-27T07:38:04.062Z,74048.00
2022-07-27T07:39:04.056Z,75840.00
2022-07-27T07:40:25.247Z,79840.00
2022-07-27T07:41:05.071Z,78528.00
2022-07-27T07:42:04.032Z,76608.00
2022-07-27T07:43:04.013Z,75520.00
2022-07-27T07:44:04.010Z,73312.00
2022-07-27T07:45:03.999Z,69632.00
2022-07-27T07:46:04.059Z,67104.00
2022-07-27T07:47:04.102Z,68608.00
2022-07-27T07:48:03.969Z,72320.00
2022-07-27T07:49:04.033Z,72576.00
2022-07-27T07:50:03.939Z,71936.00
2022-07-27T07:51:03.935Z,67424.00
2022-07-27T07:52:03.917Z,65376.00
2022-07-27T07:53:03.935Z,65824.00
2022-07-27T07:54:03.906Z,65024.00
2022-07-27T07:55:03.923Z,69024.00
2022-07-27T07:56:03.877Z,72224.00
2022-07-27T07:57:03.874Z,73824.00
2022-07-27T07:58:03.862Z,75392.00
2022-07-27T07:59:03.866Z,76384.00
2022-07-27T08:00:03.849Z,78336.00
2022-07-27T08:01:03.819Z,78912.00
2022-07-27T08:02:03.896Z,80320.00
2022-07-27T08:03:03.935Z,79712.00
2022-07-27T08:04:03.787Z,78848.00
2022-07-27T08:05:03.799Z,79392.00
2022-07-27T08:06:03.771Z,80992.00
2022-07-27T08:07:03.759Z,79904.00
2022-07-27T08:08:03.743Z,76096.00
2022-07-27T08:09:03.731Z,71616.00
2022-07-27T08:10:03.743Z,68992.00
2022-07-27T08:11:03.712Z,71840.00
2022-07-27T08:12:03.698Z,77472.00
2022-07-27T08:13:03.690Z,84352.00
2022-07-27T08:14:03.674Z,87872.00
2022-07-27T08:15:03.662Z,83424.00
2022-07-27T08:16:03.723Z,79776.00
2022-07-27T08:17:03.653Z,76096.00
2022-07-27T08:18:03.632Z,76960.00
2022-07-27T08:19:03.625Z,77952.00
2022-07-27T08:20:03.621Z,86752.00
2022-07-27T08:21:03.603Z,87680.00
2022-07-27T08:22:03.600Z,84800.00
2022-07-27T08:23:03.575Z,63648.00
2022-07-27T08:24:03.575Z,83392.00
2022-07-27T08:25:03.565Z,86880.00
2022-07-27T08:26:07.700Z,59296.00
2022-07-27T08:27:03.535Z,23744.00
2022-07-27T08:28:03.537Z,27328.00
2022-07-27T08:29:13.407Z,52192.00
2022-07-27T08:30:04.496Z,89920.00
2022-07-27T08:31:14.539Z,83936.00
2022-07-27T08:32:05.968Z,82304.00
2022-07-27T08:33:03.471Z,84960.00
2022-07-27T08:34:03.457Z,87744.00
2022-07-27T08:35:03.450Z,88480.00
2022-07-27T08:36:03.437Z,80768.00
2022-07-27T08:37:03.432Z,91648.00
2022-07-27T08:38:03.441Z,54848.00
2022-07-27T08:39:03.409Z,39328.00
2022-07-27T08:40:39.086Z,55072.00
2022-07-27T08:41:04.389Z,93792.00
2022-07-27T08:42:03.372Z,57728.00
2022-07-27T08:43:03.388Z,94784.00
2022-07-27T08:44:03.360Z,94656.00
2022-07-27T08:45:03.349Z,94688.00
2022-07-27T08:46:03.432Z,82368.00
2022-07-27T08:47:03.392Z,96544.00
2022-07-27T08:48:03.325Z,95456.00
2022-07-27T08:49:10.706Z,96576.00
2022-07-27T08:50:03.284Z,96480.00
2022-07-27T08:51:03.277Z,96064.00
2022-07-27T08:52:03.264Z,82080.00
2022-07-27T08:53:03.267Z,22368.00
2022-07-27T08:54:03.245Z,18816.00
2022-07-27T08:55:03.255Z,22368.00
2022-07-27T08:56:03.216Z,19648.00
2022-07-27T08:57:03.209Z,16260.00
2022-07-27T08:58:03.914Z,95680.00
2022-07-27T08:59:03.195Z,101984.00
2022-07-27T09:00:03.177Z,104032.00
2022-07-27T09:01:03.189Z,107488.00
2022-07-27T09:02:03.644Z,36352.00
2022-07-27T09:03:03.294Z,107968.00
2022-07-27T09:04:03.137Z,24192.00
2022-07-27T09:05:03.126Z,78464.00
2022-07-27T09:06:03.108Z,101344.00
2022-07-27T09:07:03.132Z,103328.00
2022-07-27T09:08:03.089Z,102400.00
2022-07-27T09:09:03.079Z,63776.00
2022-07-27T09:10:03.075Z,99488.00
2022-07-27T09:11:03.059Z,22688.00
2022-07-27T09:12:03.054Z,20480.00
2022-07-27T09:13:03.060Z,18656.00
2022-07-27T09:14:03.023Z,21024.00
2022-07-27T09:15:03.020Z,17728.00
2022-07-27T09:16:19.966Z,16880.00
2022-07-27T09:17:46.867Z,16392.00
2022-07-27T09:18:04.033Z,16260.00
2022-07-27T09:19:02.981Z,70752.00
2022-07-27T09:20:02.961Z,16576.00
2022-07-27T09:21:02.952Z,14912.00
2022-07-27T09:22:02.941Z,16900.00
2022-07-27T09:23:02.933Z,16596.00
2022-07-27T09:24:02.941Z,17696.00
2022-07-27T09:25:02.936Z,89312.00
2022-07-27T09:26:08.573Z,89408.00
2022-07-27T09:27:03.919Z,88160.00
2022-07-27T09:28:02.874Z,86048.00
2022-07-27T09:29:02.870Z,86208.00
2022-07-27T09:30:02.872Z,89088.00
2022-07-27T09:31:02.890Z,81056.00
2022-07-27T09:32:02.837Z,64160.00
2022-07-27T09:33:02.826Z,86880.00
2022-07-27T09:34:02.888Z,88768.00
2022-07-27T09:35:02.894Z,91360.00
2022-07-27T09:36:02.791Z,92896.00
2022-07-27T09:37:02.784Z,93824.00
2022-07-27T09:38:02.775Z,90528.00
2022-07-27T09:39:03.222Z,72896.00
2022-07-27T09:40:02.754Z,88128.00
2022-07-27T09:41:02.763Z,44960.00
2022-07-27T09:42:03.150Z,16368.00
2022-07-27T09:43:14.826Z,14672.00
2022-07-27T09:44:31.984Z,19072.00
2022-07-27T09:45:03.696Z,49056.00
2022-07-27T09:46:02.732Z,98368.00
2022-07-27T09:47:02.689Z,95456.00
2022-07-27T09:48:02.660Z,95328.00
2022-07-27T09:49:02.684Z,95168.00
2022-07-27T09:50:02.651Z,19712.00
2022-07-27T09:51:05.520Z,19168.00
2022-07-27T09:52:03.796Z,19040.00
2022-07-27T09:53:19.753Z,18432.00
2022-07-27T09:54:03.600Z,18336.00
2022-07-27T09:55:02.608Z,41312.00
2022-07-27T09:56:02.582Z,16516.00
2022-07-27T09:57:02.576Z,15436.00
2022-07-27T09:58:02.580Z,14984.00
2022-07-27T09:59:02.552Z,15212.00
2022-07-27T10:00:02.532Z,15528.00
2022-07-27T10:01:02.533Z,15668.00
2022-07-27T10:02:02.573Z,15492.00
2022-07-27T10:03:02.524Z,15052.00
2022-07-27T10:04:02.541Z,14412.00
2022-07-27T10:05:02.565Z,13968.00
2022-07-27T10:06:02.465Z,13044.00
2022-07-27T10:07:04.567Z,12464.00
2022-07-27T10:08:02.453Z,11744.00
2022-07-27T10:09:02.454Z,11564.00
2022-07-27T10:10:02.426Z,11656.00
2022-07-27T10:11:04.120Z,11804.00
2022-07-27T10:12:02.424Z,12012.00
2022-07-27T10:13:02.393Z,12264.00
2022-07-27T10:14:02.379Z,12476.00
2022-07-27T10:15:02.423Z,12752.00
2022-07-27T10:16:02.423Z,13576.00
2022-07-27T10:17:02.350Z,15312.00
2022-07-27T10:18:06.700Z,16972.00
2022-07-27T10:19:03.329Z,17332.00
2022-07-27T10:20:03.329Z,17016.00
2022-07-27T10:21:02.298Z,14916.00
2022-07-27T10:22:02.289Z,13436.00
2022-07-27T10:23:02.278Z,12120.00
2022-07-27T10:24:02.267Z,10700.00
2022-07-27T10:25:02.313Z,9944.00
2022-07-27T10:26:02.260Z,9916.00
2022-07-27T10:27:02.255Z,10000.00
2022-07-27T10:28:02.220Z,10176.00
2022-07-27T10:29:02.212Z,10436.00
2022-07-27T10:30:02.200Z,10928.00
2022-07-27T10:31:02.252Z,11664.00
2022-07-27T10:32:02.202Z,12640.00
2022-07-27T10:33:02.169Z,13308.00
2022-07-27T10:34:02.159Z,13580.00
2022-07-27T10:35:02.186Z,13744.00
2022-07-27T10:36:02.141Z,13780.00
2022-07-27T10:37:02.144Z,14556.00
2022-07-27T10:38:02.119Z,15352.00
2022-07-27T10:39:02.105Z,14124.00
2022-07-27T10:40:02.096Z,14156.00
2022-07-27T10:41:02.082Z,14412.00
2022-07-27T10:42:02.074Z,14944.00
2022-07-27T10:43:02.083Z,14776.00
2022-07-27T10:44:02.052Z,15416.00
2022-07-27T10:45:02.090Z,15360.00
2022-07-27T10:46:03.038Z,15356.00
2022-07-27T10:47:02.015Z,14888.00
2022-07-27T10:48:02.013Z,15516.00
2022-07-27T10:49:02.055Z,16212.00
2022-07-27T10:50:01.989Z,17008.00
2022-07-27T10:51:02.002Z,18176.00
2022-07-27T10:52:01.966Z,18176.00
2022-07-27T10:53:01.954Z,17952.00
2022-07-27T10:54:12.566Z,16536.00
2022-07-27T10:55:02.984Z,14908.00
2022-07-27T10:56:01.925Z,14464.00
2022-07-27T10:57:01.906Z,13816.00
2022-07-27T10:58:01.898Z,14212.00
2022-07-27T10:59:01.887Z,15044.00
2022-07-27T11:00:12.368Z,16228.00
2022-07-27T11:01:02.936Z,16260.00
2022-07-27T11:02:01.990Z,16644.00
2022-07-27T11:03:01.847Z,16000.00
2022-07-27T11:04:01.897Z,15344.00
2022-07-27T11:05:01.818Z,14360.00
2022-07-27T11:06:21.752Z,12292.00
2022-07-27T11:07:28.054Z,11476.00
2022-07-27T11:08:35.629Z,11272.00
2022-07-27T11:10:04.469Z,12624.00
2022-07-27T11:11:01.749Z,12800.00
2022-07-27T11:12:01.769Z,13308.00
2022-07-27T11:13:09.815Z,14368.00
2022-07-27T11:14:02.728Z,15452.00
2022-07-27T11:15:01.709Z,16388.00
2022-07-27T11:16:22.984Z,17152.00
2022-07-27T11:18:05.028Z,17472.00
2022-07-27T11:19:01.809Z,17888.00
2022-07-27T11:20:01.661Z,18208.00
2022-07-27T11:21:04.608Z,18336.00
2022-07-27T11:22:04.661Z,18400.00
2022-07-27T11:24:02.631Z,19136.00
2022-07-27T11:25:01.602Z,21024.00
2022-07-27T11:26:01.598Z,19936.00
2022-07-27T11:27:01.582Z,19200.00
2022-07-27T11:28:02.573Z,19072.00
2022-07-27T11:29:01.564Z,20288.00
2022-07-27T11:30:01.573Z,19488.00
2022-07-27T11:31:03.653Z,18592.00
2022-07-27T11:32:01.579Z,16892.00
2022-07-27T11:33:01.513Z,16656.00
2022-07-27T11:34:01.506Z,16272.00
2022-07-27T11:35:01.493Z,15884.00
2022-07-27T11:36:01.515Z,16260.00
2022-07-27T11:37:01.475Z,16988.00
2022-07-27T11:38:01.478Z,16944.00
2022-07-27T11:39:01.445Z,15728.00
2022-07-27T11:40:04.150Z,16000.00
2022-07-27T11:41:15.319Z,16640.00
2022-07-27T11:42:11.689Z,17760.00
2022-07-27T11:43:02.406Z,17376.00
2022-07-27T11:44:01.396Z,18496.00
2022-07-27T11:45:01.378Z,17120.00
2022-07-27T11:46:01.423Z,16028.00
2022-07-27T11:47:01.879Z,15692.00
2022-07-27T11:48:01.347Z,15972.00
2022-07-27T11:49:07.115Z,15892.00
2022-07-27T11:50:02.379Z,16064.00
2022-07-27T11:51:01.307Z,16512.00
2022-07-27T11:52:01.308Z,16512.00
2022-07-27T11:53:01.925Z,15760.00
2022-07-27T11:54:01.278Z,17312.00
2022-07-27T11:55:01.268Z,16664.00
2022-07-27T11:56:01.259Z,17792.00
2022-07-27T11:57:01.239Z,18112.00
2022-07-27T11:58:01.238Z,18496.00
2022-07-27T11:59:01.630Z,19328.00
2022-07-27T12:00:01.212Z,20352.00
2022-07-27T12:01:01.200Z,20384.00
2022-07-27T12:02:01.263Z,20480.00
2022-07-27T12:03:01.205Z,20192.00
2022-07-27T12:04:01.194Z,20256.00
2022-07-27T12:05:03.255Z,20128.00
2022-07-27T12:06:01.140Z,19488.00
2022-07-27T12:07:01.135Z,18464.00
2022-07-27T12:08:01.121Z,17280.00
2022-07-27T12:09:01.111Z,16352.00
2022-07-27T12:10:01.122Z,15604.00
2022-07-27T12:11:01.087Z,15252.00
2022-07-27T12:12:01.081Z,14928.00
2022-07-27T12:13:01.063Z,14756.00
2022-07-27T12:14:01.083Z,14676.00
2022-07-27T12:15:01.040Z,15112.00
2022-07-27T12:16:01.054Z,15600.00
2022-07-27T12:17:01.089Z,15512.00
2022-07-27T12:18:01.007Z,15260.00
2022-07-27T12:19:00.993Z,15724.00